sensor_id;sensor_type;location;lat;lon;timestamp;temperature;humidity
8214;DHT22;4148;47.974;7.824;2024-02-23T00:00:39;7.00;1.00
8214;DHT22;4148;47.974;7.824;2024-02-23T00:03:07;7.00;1.00
8214;DHT22;4148;47.974;7.824;2024-02-23T00:05:37;7.00;1.00
8214;DHT22;4148;47.974;7.824;2024-02-23T00:08:06;7.00;99.90
8214;DHT22;4148;47.974;7.824;2024-02-23T00:10:35;6.90;1.00
8214;DHT22;4148;47.974;7.824;2024-02-23T00:13:03;7.00;99.90
8214;DHT22;4148;47.974;7.824;2024-02-23T00:15:31;6.90;99.90
8214;DHT22;4148;47.974;7.824;2024-02-23T00:17:59;7.00;99.90
8214;DHT22;4148;47.974;7.824;2024-02-23T00:20:30;6.90;99.90
8214;DHT22;4148;47.974;7.824;2024-02-23T00:22:58;6.90;99.90
8214;DHT22;4148;47.974;7.824;2024-02-23T00:25:27;6.90;99.90
8214;DHT22;4148;47.974;7.824;2024-02-23T00:27:55;6.90;1.00
8214;DHT22;4148;47.974;7.824;2024-02-23T00:30:23;6.90;99.90
8214;DHT22;4148;47.974;7.824;2024-02-23T00:32:51;6.80;99.90
8214;DHT22;4148;47.974;7.824;2024-02-23T00:35:19;6.80;95.10
8214;DHT22;4148;47.974;7.824;2024-02-23T00:37:47;6.70;1.00
8214;DHT22;4148;47.974;7.824;2024-02-23T00:40:15;6.70;99.90
8214;DHT22;4148;47.974;7.824;2024-02-23T00:42:44;6.60;1.00
8214;DHT22;4148;47.974;7.824;2024-02-23T00:45:12;6.60;1.00
8214;DHT22;4148;47.974;7.824;2024-02-23T00:47:42;6.60;1.00
8214;DHT22;4148;47.974;7.824;2024-02-23T00:50:10;6.60;99.90
8214;DHT22;4148;47.974;7.824;2024-02-23T00:52:38;6.60;99.90
8214;DHT22;4148;47.974;7.824;2024-02-23T00:55:07;6.60;99.90
8214;DHT22;4148;47.974;7.824;2024-02-23T00:57:35;6.50;1.00
8214;DHT22;4148;47.974;7.824;2024-02-23T01:00:06;6.50;99.90
8214;DHT22;4148;47.974;7.824;2024-02-23T01:02:36;6.50;39.40
8214;DHT22;4148;47.974;7.824;2024-02-23T01:05:05;6.50;94.10
8214;DHT22;4148;47.974;7.824;2024-02-23T01:07:33;6.50;99.90
8214;DHT22;4148;47.974;7.824;2024-02-23T01:10:00;6.50;1.00
8214;DHT22;4148;47.974;7.824;2024-02-23T01:12:30;6.40;1.00
8214;DHT22;4148;47.974;7.824;2024-02-23T01:14:58;6.30;87.90
8214;DHT22;4148;47.974;7.824;2024-02-23T01:17:32;6.30;99.90
8214;DHT22;4148;47.974;7.824;2024-02-23T01:20:00;6.30;99.90
8214;DHT22;4148;47.974;7.824;2024-02-23T01:22:28;6.30;1.00
8214;DHT22;4148;47.974;7.824;2024-02-23T01:24:56;6.20;1.00
8214;DHT22;4148;47.974;7.824;2024-02-23T01:27:24;6.20;1.00
8214;DHT22;4148;47.974;7.824;2024-02-23T01:29:52;6.20;99.90
8214;DHT22;4148;47.974;7.824;2024-02-23T01:32:19;6.20;1.00
8214;DHT22;4148;47.974;7.824;2024-02-23T01:34:48;6.10;44.80
8214;DHT22;4148;47.974;7.824;2024-02-23T01:37:16;6.10;1.00
8214;DHT22;4148;47.974;7.824;2024-02-23T01:39:44;6.20;99.90
8214;DHT22;4148;47.974;7.824;2024-02-23T01:42:11;6.10;99.90
8214;DHT22;4148;47.974;7.824;2024-02-23T01:44:39;6.10;1.00
8214;DHT22;4148;47.974;7.824;2024-02-23T01:47:07;6.10;99.90
8214;DHT22;4148;47.974;7.824;2024-02-23T01:49:35;6.10;1.00
8214;DHT22;4148;47.974;7.824;2024-02-23T01:52:05;6.00;99.90
8214;DHT22;4148;47.974;7.824;2024-02-23T01:54:33;6.10;99.90
8214;DHT22;4148;47.974;7.824;2024-02-23T01:57:02;6.10;99.90
8214;DHT22;4148;47.974;7.824;2024-02-23T01:59:50;6.10;99.90
8214;DHT22;4148;47.974;7.824;2024-02-23T02:02:18;6.10;99.90
8214;DHT22;4148;47.974;7.824;2024-02-23T02:04:46;6.00;99.90
8214;DHT22;4148;47.974;7.824;2024-02-23T02:07:15;6.00;99.90
8214;DHT22;4148;47.974;7.824;2024-02-23T02:09:44;5.90;99.90
8214;DHT22;4148;47.974;7.824;2024-02-23T02:12:15;5.90;99.90
8214;DHT22;4148;47.974;7.824;2024-02-23T02:14:53;5.90;99.90
8214;DHT22;4148;47.974;7.824;2024-02-23T02:17:22;5.90;99.90
8214;DHT22;4148;47.974;7.824;2024-02-23T02:19:50;5.90;43.60
8214;DHT22;4148;47.974;7.824;2024-02-23T02:22:20;5.90;1.00
8214;DHT22;4148;47.974;7.824;2024-02-23T02:24:48;5.90;99.90
8214;DHT22;4148;47.974;7.824;2024-02-23T02:27:15;5.80;1.00
8214;DHT22;4148;47.974;7.824;2024-02-23T02:29:43;5.80;99.90
8214;DHT22;4148;47.974;7.824;2024-02-23T02:32:11;5.80;99.90
8214;DHT22;4148;47.974;7.824;2024-02-23T02:34:39;5.80;1.00
8214;DHT22;4148;47.974;7.824;2024-02-23T02:37:07;5.80;1.00
8214;DHT22;4148;47.974;7.824;2024-02-23T02:39:37;5.90;99.90
8214;DHT22;4148;47.974;7.824;2024-02-23T02:42:05;5.90;1.00
8214;DHT22;4148;47.974;7.824;2024-02-23T02:44:33;5.90;99.90
8214;DHT22;4148;47.974;7.824;2024-02-23T02:47:01;5.90;1.00
8214;DHT22;4148;47.974;7.824;2024-02-23T02:49:29;5.90;99.90
8214;DHT22;4148;47.974;7.824;2024-02-23T02:51:57;5.90;1.00
8214;DHT22;4148;47.974;7.824;2024-02-23T02:54:25;6.00;1.00
8214;DHT22;4148;47.974;7.824;2024-02-23T02:56:54;6.10;1.00
8214;DHT22;4148;47.974;7.824;2024-02-23T02:59:23;6.00;99.90
8214;DHT22;4148;47.974;7.824;2024-02-23T03:01:54;6.00;99.90
8214;DHT22;4148;47.974;7.824;2024-02-23T03:04:24;6.00;99.90
8214;DHT22;4148;47.974;7.824;2024-02-23T03:06:52;6.00;40.90
8214;DHT22;4148;47.974;7.824;2024-02-23T03:09:20;6.00;99.90
8214;DHT22;4148;47.974;7.824;2024-02-23T03:11:47;6.00;99.90
8214;DHT22;4148;47.974;7.824;2024-02-23T03:14:17;6.10;1.00
8214;DHT22;4148;47.974;7.824;2024-02-23T03:16:48;6.00;99.90
8214;DHT22;4148;47.974;7.824;2024-02-23T03:19:16;6.10;99.90
8214;DHT22;4148;47.974;7.824;2024-02-23T03:21:49;6.10;99.90
8214;DHT22;4148;47.974;7.824;2024-02-23T03:24:17;6.10;99.90
8214;DHT22;4148;47.974;7.824;2024-02-23T03:26:45;6.10;99.90
8214;DHT22;4148;47.974;7.824;2024-02-23T03:29:13;6.10;99.90
8214;DHT22;4148;47.974;7.824;2024-02-23T03:31:42;6.10;1.00
8214;DHT22;4148;47.974;7.824;2024-02-23T03:34:10;6.10;99.90
8214;DHT22;4148;47.974;7.824;2024-02-23T03:36:39;6.10;99.90
8214;DHT22;4148;47.974;7.824;2024-02-23T03:39:07;6.20;99.90
8214;DHT22;4148;47.974;7.824;2024-02-23T03:41:35;6.20;1.00
8214;DHT22;4148;47.974;7.824;2024-02-23T03:44:03;6.20;1.00
8214;DHT22;4148;47.974;7.824;2024-02-23T03:46:31;6.20;99.90
8214;DHT22;4148;47.974;7.824;2024-02-23T03:49:02;6.10;99.90
8214;DHT22;4148;47.974;7.824;2024-02-23T03:51:30;6.10;60.70
8214;DHT22;4148;47.974;7.824;2024-02-23T03:53:59;6.00;99.90
8214;DHT22;4148;47.974;7.824;2024-02-23T03:56:27;6.00;1.00
8214;DHT22;4148;47.974;7.824;2024-02-23T03:58:55;6.00;1.00
8214;DHT22;4148;47.974;7.824;2024-02-23T04:01:23;6.00;1.00
8214;DHT22;4148;47.974;7.824;2024-02-23T04:03:51;5.90;1.00
8214;DHT22;4148;47.974;7.824;2024-02-23T04:06:20;5.90;52.70
8214;DHT22;4148;47.974;7.824;2024-02-23T04:08:48;5.80;82.40
8214;DHT22;4148;47.974;7.824;2024-02-23T04:11:16;5.70;99.90
8214;DHT22;4148;47.974;7.824;2024-02-23T04:13:45;5.70;1.00
8214;DHT22;4148;47.974;7.824;2024-02-23T04:16:17;5.70;24.80
8214;DHT22;4148;47.974;7.824;2024-02-23T04:18:45;5.60;27.70
8214;DHT22;4148;47.974;7.824;2024-02-23T04:21:12;5.60;99.90
8214;DHT22;4148;47.974;7.824;2024-02-23T04:23:43;5.60;1.00
8214;DHT22;4148;47.974;7.824;2024-02-23T04:26:11;5.60;1.00
8214;DHT22;4148;47.974;7.824;2024-02-23T04:28:39;5.50;1.00
8214;DHT22;4148;47.974;7.824;2024-02-23T04:31:08;5.50;1.00
8214;DHT22;4148;47.974;7.824;2024-02-23T04:33:36;5.50;99.90
8214;DHT22;4148;47.974;7.824;2024-02-23T04:36:05;5.40;1.00
8214;DHT22;4148;47.974;7.824;2024-02-23T04:38:33;5.40;1.00
8214;DHT22;4148;47.974;7.824;2024-02-23T04:41:04;5.30;1.00
8214;DHT22;4148;47.974;7.824;2024-02-23T04:43:32;5.30;1.00
8214;DHT22;4148;47.974;7.824;2024-02-23T04:46:00;5.30;1.00
8214;DHT22;4148;47.974;7.824;2024-02-23T04:48:28;5.30;1.00
8214;DHT22;4148;47.974;7.824;2024-02-23T04:50:57;5.40;1.00
8214;DHT22;4148;47.974;7.824;2024-02-23T04:53:25;5.40;1.00
8214;DHT22;4148;47.974;7.824;2024-02-23T04:55:53;5.40;99.90
8214;DHT22;4148;47.974;7.824;2024-02-23T04:58:23;5.30;99.90
8214;DHT22;4148;47.974;7.824;2024-02-23T05:00:51;5.40;99.90
8214;DHT22;4148;47.974;7.824;2024-02-23T05:03:19;5.40;99.90
8214;DHT22;4148;47.974;7.824;2024-02-23T05:05:47;5.40;99.90
8214;DHT22;4148;47.974;7.824;2024-02-23T05:08:20;5.40;99.90
8214;DHT22;4148;47.974;7.824;2024-02-23T05:10:48;5.40;99.90
8214;DHT22;4148;47.974;7.824;2024-02-23T05:13:16;5.30;99.90
8214;DHT22;4148;47.974;7.824;2024-02-23T05:15:45;5.30;99.90
8214;DHT22;4148;47.974;7.824;2024-02-23T05:18:13;5.30;99.90
8214;DHT22;4148;47.974;7.824;2024-02-23T05:20:41;5.20;99.90
8214;DHT22;4148;47.974;7.824;2024-02-23T05:23:09;5.20;99.90
8214;DHT22;4148;47.974;7.824;2024-02-23T05:25:37;5.20;99.90
8214;DHT22;4148;47.974;7.824;2024-02-23T05:28:05;5.20;99.90
8214;DHT22;4148;47.974;7.824;2024-02-23T05:30:33;5.10;1.00
8214;DHT22;4148;47.974;7.824;2024-02-23T05:33:02;5.10;1.00
8214;DHT22;4148;47.974;7.824;2024-02-23T05:35:31;5.10;1.00
8214;DHT22;4148;47.974;7.824;2024-02-23T05:38:00;5.10;1.00
8214;DHT22;4148;47.974;7.824;2024-02-23T05:40:28;5.10;1.00
8214;DHT22;4148;47.974;7.824;2024-02-23T05:42:56;5.10;1.00
8214;DHT22;4148;47.974;7.824;2024-02-23T05:45:24;5.10;1.00
8214;DHT22;4148;47.974;7.824;2024-02-23T05:47:52;5.10;1.00
8214;DHT22;4148;47.974;7.824;2024-02-23T05:50:21;5.10;1.00
8214;DHT22;4148;47.974;7.824;2024-02-23T05:52:49;5.10;1.00
8214;DHT22;4148;47.974;7.824;2024-02-23T05:55:17;5.10;1.00
8214;DHT22;4148;47.974;7.824;2024-02-23T05:57:45;5.10;1.00
8214;DHT22;4148;47.974;7.824;2024-02-23T06:00:13;5.10;1.00
8214;DHT22;4148;47.974;7.824;2024-02-23T06:02:45;5.00;1.00
8214;DHT22;4148;47.974;7.824;2024-02-23T06:05:13;5.10;99.90
8214;DHT22;4148;47.974;7.824;2024-02-23T06:07:42;5.00;99.90
8214;DHT22;4148;47.974;7.824;2024-02-23T06:10:10;5.10;99.90
8214;DHT22;4148;47.974;7.824;2024-02-23T06:12:38;5.00;1.00
8214;DHT22;4148;47.974;7.824;2024-02-23T06:15:07;5.00;1.00
8214;DHT22;4148;47.974;7.824;2024-02-23T06:17:35;5.10;1.00
8214;DHT22;4148;47.974;7.824;2024-02-23T06:20:04;5.00;99.90
8214;DHT22;4148;47.974;7.824;2024-02-23T06:22:34;5.10;99.90
8214;DHT22;4148;47.974;7.824;2024-02-23T06:25:04;5.10;99.90
8214;DHT22;4148;47.974;7.824;2024-02-23T06:27:32;5.10;99.90
8214;DHT22;4148;47.974;7.824;2024-02-23T06:30:00;5.20;99.90
8214;DHT22;4148;47.974;7.824;2024-02-23T06:32:27;5.10;99.90
8214;DHT22;4148;47.974;7.824;2024-02-23T06:34:56;5.00;99.90
8214;DHT22;4148;47.974;7.824;2024-02-23T06:37:26;5.00;99.90
8214;DHT22;4148;47.974;7.824;2024-02-23T06:39:54;5.00;99.90
8214;DHT22;4148;47.974;7.824;2024-02-23T06:42:23;5.00;99.90
8214;DHT22;4148;47.974;7.824;2024-02-23T06:44:51;5.00;99.90
8214;DHT22;4148;47.974;7.824;2024-02-23T06:47:20;5.00;99.90
8214;DHT22;4148;47.974;7.824;2024-02-23T06:49:49;5.00;99.90
8214;DHT22;4148;47.974;7.824;2024-02-23T06:52:17;5.10;99.90
8214;DHT22;4148;47.974;7.824;2024-02-23T06:54:45;5.00;99.90
8214;DHT22;4148;47.974;7.824;2024-02-23T06:57:13;5.00;99.90
8214;DHT22;4148;47.974;7.824;2024-02-23T06:59:42;5.00;99.90
8214;DHT22;4148;47.974;7.824;2024-02-23T07:02:10;5.00;99.90
8214;DHT22;4148;47.974;7.824;2024-02-23T07:04:38;5.00;99.90
8214;DHT22;4148;47.974;7.824;2024-02-23T07:07:06;5.00;99.90
8214;DHT22;4148;47.974;7.824;2024-02-23T07:09:35;5.10;99.90
8214;DHT22;4148;47.974;7.824;2024-02-23T07:12:03;5.10;99.90
8214;DHT22;4148;47.974;7.824;2024-02-23T07:14:31;5.10;99.90
8214;DHT22;4148;47.974;7.824;2024-02-23T07:17:01;5.10;99.90
8214;DHT22;4148;47.974;7.824;2024-02-23T07:19:29;5.20;99.90
8214;DHT22;4148;47.974;7.824;2024-02-23T07:21:57;5.20;99.90
8214;DHT22;4148;47.974;7.824;2024-02-23T07:24:25;5.30;99.90
8214;DHT22;4148;47.974;7.824;2024-02-23T07:26:53;5.30;99.90
8214;DHT22;4148;47.974;7.824;2024-02-23T07:29:21;5.40;99.90
8214;DHT22;4148;47.974;7.824;2024-02-23T07:31:49;5.40;99.90
8214;DHT22;4148;47.974;7.824;2024-02-23T07:34:18;5.50;99.90
8214;DHT22;4148;47.974;7.824;2024-02-23T07:36:46;5.50;99.90
8214;DHT22;4148;47.974;7.824;2024-02-23T07:39:14;5.60;90.60
8214;DHT22;4148;47.974;7.824;2024-02-23T07:41:42;5.70;88.90
8214;DHT22;4148;47.974;7.824;2024-02-23T07:44:09;5.80;50.70
8214;DHT22;4148;47.974;7.824;2024-02-23T07:46:37;5.80;51.90
8214;DHT22;4148;47.974;7.824;2024-02-23T07:49:05;5.90;44.00
8214;DHT22;4148;47.974;7.824;2024-02-23T07:51:35;5.90;12.20
8214;DHT22;4148;47.974;7.824;2024-02-23T07:54:03;5.90;1.00
8214;DHT22;4148;47.974;7.824;2024-02-23T07:56:32;5.90;5.50
8214;DHT22;4148;47.974;7.824;2024-02-23T07:58:59;5.90;1.00
8214;DHT22;4148;47.974;7.824;2024-02-23T08:01:29;5.90;1.00
8214;DHT22;4148;47.974;7.824;2024-02-23T08:03:57;6.00;1.00
8214;DHT22;4148;47.974;7.824;2024-02-23T08:06:25;6.10;1.00
8214;DHT22;4148;47.974;7.824;2024-02-23T08:08:55;6.20;1.00
8214;DHT22;4148;47.974;7.824;2024-02-23T08:11:23;6.40;1.00
8214;DHT22;4148;47.974;7.824;2024-02-23T08:13:51;6.50;1.00
8214;DHT22;4148;47.974;7.824;2024-02-23T08:16:18;6.50;1.00
8214;DHT22;4148;47.974;7.824;2024-02-23T08:18:46;6.60;1.00
8214;DHT22;4148;47.974;7.824;2024-02-23T08:21:14;6.70;1.00
8214;DHT22;4148;47.974;7.824;2024-02-23T08:23:43;6.70;1.00
8214;DHT22;4148;47.974;7.824;2024-02-23T08:26:13;6.70;1.00
8214;DHT22;4148;47.974;7.824;2024-02-23T08:28:42;6.80;1.00
8214;DHT22;4148;47.974;7.824;2024-02-23T08:31:09;6.80;1.00
8214;DHT22;4148;47.974;7.824;2024-02-23T08:33:37;6.90;1.00
8214;DHT22;4148;47.974;7.824;2024-02-23T08:36:06;7.00;1.00
8214;DHT22;4148;47.974;7.824;2024-02-23T08:38:34;7.20;1.00
8214;DHT22;4148;47.974;7.824;2024-02-23T08:41:02;7.30;1.00
8214;DHT22;4148;47.974;7.824;2024-02-23T08:43:31;7.30;1.00
8214;DHT22;4148;47.974;7.824;2024-02-23T08:45:59;7.40;1.00
8214;DHT22;4148;47.974;7.824;2024-02-23T08:48:33;7.50;1.00
8214;DHT22;4148;47.974;7.824;2024-02-23T08:51:01;7.60;1.00
8214;DHT22;4148;47.974;7.824;2024-02-23T08:53:29;7.70;1.00
8214;DHT22;4148;47.974;7.824;2024-02-23T08:55:57;7.80;1.00
8214;DHT22;4148;47.974;7.824;2024-02-23T08:58:25;8.10;1.00
8214;DHT22;4148;47.974;7.824;2024-02-23T09:00:54;8.70;99.90
8214;DHT22;4148;47.974;7.824;2024-02-23T09:03:23;9.40;1.00
8214;DHT22;4148;47.974;7.824;2024-02-23T09:05:50;10.00;1.00
8214;DHT22;4148;47.974;7.824;2024-02-23T09:08:19;10.50;99.90
8214;DHT22;4148;47.974;7.824;2024-02-23T09:10:46;10.90;99.90
8214;DHT22;4148;47.974;7.824;2024-02-23T09:13:14;11.20;99.90
8214;DHT22;4148;47.974;7.824;2024-02-23T09:18:12;11.50;99.90
8214;DHT22;4148;47.974;7.824;2024-02-23T09:20:41;11.70;99.90
8214;DHT22;4148;47.974;7.824;2024-02-23T09:23:08;11.90;99.90
8214;DHT22;4148;47.974;7.824;2024-02-23T09:25:37;12.40;99.90
8214;DHT22;4148;47.974;7.824;2024-02-23T09:28:08;12.80;99.90
8214;DHT22;4148;47.974;7.824;2024-02-23T09:33:06;13.40;99.90
8214;DHT22;4148;47.974;7.824;2024-02-23T09:35:36;13.70;99.90
8214;DHT22;4148;47.974;7.824;2024-02-23T09:40:33;14.20;99.90
8214;DHT22;4148;47.974;7.824;2024-02-23T09:43:01;14.60;99.90
8214;DHT22;4148;47.974;7.824;2024-02-23T09:45:30;14.80;99.90
8214;DHT22;4148;47.974;7.824;2024-02-23T09:47:58;14.90;99.90
8214;DHT22;4148;47.974;7.824;2024-02-23T09:50:28;15.00;99.90
8214;DHT22;4148;47.974;7.824;2024-02-23T09:52:58;15.30;99.90
8214;DHT22;4148;47.974;7.824;2024-02-23T09:55:27;15.30;99.90
8214;DHT22;4148;47.974;7.824;2024-02-23T09:57:57;15.50;99.90
8214;DHT22;4148;47.974;7.824;2024-02-23T10:00:27;15.90;99.90
8214;DHT22;4148;47.974;7.824;2024-02-23T10:02:56;16.20;99.90
8214;DHT22;4148;47.974;7.824;2024-02-23T10:05:29;16.40;99.90
8214;DHT22;4148;47.974;7.824;2024-02-23T10:08:05;16.20;99.90
8214;DHT22;4148;47.974;7.824;2024-02-23T10:10:34;16.40;99.90
8214;DHT22;4148;47.974;7.824;2024-02-23T10:13:05;16.30;99.90
8214;DHT22;4148;47.974;7.824;2024-02-23T10:15:33;16.40;99.90
8214;DHT22;4148;47.974;7.824;2024-02-23T10:20:29;16.30;99.90
8214;DHT22;4148;47.974;7.824;2024-02-23T10:22:57;16.40;99.90
8214;DHT22;4148;47.974;7.824;2024-02-23T10:25:27;16.60;99.90
8214;DHT22;4148;47.974;7.824;2024-02-23T10:27:55;16.60;99.90
8214;DHT22;4148;47.974;7.824;2024-02-23T10:30:22;16.70;99.90
8214;DHT22;4148;47.974;7.824;2024-02-23T10:32:52;16.70;99.90
8214;DHT22;4148;47.974;7.824;2024-02-23T10:35:23;17.00;99.90
8214;DHT22;4148;47.974;7.824;2024-02-23T10:37:53;17.30;99.90
8214;DHT22;4148;47.974;7.824;2024-02-23T10:40:22;17.60;99.90
8214;DHT22;4148;47.974;7.824;2024-02-23T10:42:51;17.20;99.90
8214;DHT22;4148;47.974;7.824;2024-02-23T10:45:24;17.30;99.90
8214;DHT22;4148;47.974;7.824;2024-02-23T10:47:52;17.30;99.90
8214;DHT22;4148;47.974;7.824;2024-02-23T10:50:22;17.00;99.90
8214;DHT22;4148;47.974;7.824;2024-02-23T10:52:51;16.60;99.90
8214;DHT22;4148;47.974;7.824;2024-02-23T10:55:20;16.20;99.90
8214;DHT22;4148;47.974;7.824;2024-02-23T10:57:52;15.40;99.90
8214;DHT22;4148;47.974;7.824;2024-02-23T11:00:21;15.50;99.90
8214;DHT22;4148;47.974;7.824;2024-02-23T11:02:53;14.90;99.90
8214;DHT22;4148;47.974;7.824;2024-02-23T11:05:23;15.40;99.90
8214;DHT22;4148;47.974;7.824;2024-02-23T11:07:51;15.30;99.90
8214;DHT22;4148;47.974;7.824;2024-02-23T11:10:23;14.70;99.90
8214;DHT22;4148;47.974;7.824;2024-02-23T11:12:59;14.30;99.90
8214;DHT22;4148;47.974;7.824;2024-02-23T11:15:28;14.00;99.90
8214;DHT22;4148;47.974;7.824;2024-02-23T11:17:56;13.60;99.90
8214;DHT22;4148;47.974;7.824;2024-02-23T11:20:34;13.10;99.90
8214;DHT22;4148;47.974;7.824;2024-02-23T11:23:13;13.00;99.90
8214;DHT22;4148;47.974;7.824;2024-02-23T11:25:41;12.60;99.90
8214;DHT22;4148;47.974;7.824;2024-02-23T11:30:50;12.10;99.90
8214;DHT22;4148;47.974;7.824;2024-02-23T11:33:25;12.20;99.90
8214;DHT22;4148;47.974;7.824;2024-02-23T11:36:04;13.00;99.90
8214;DHT22;4148;47.974;7.824;2024-02-23T11:38:33;13.30;99.90
8214;DHT22;4148;47.974;7.824;2024-02-23T11:41:02;13.80;99.90
8214;DHT22;4148;47.974;7.824;2024-02-23T11:43:34;14.30;99.90
8214;DHT22;4148;47.974;7.824;2024-02-23T11:46:03;14.90;99.90
8214;DHT22;4148;47.974;7.824;2024-02-23T11:48:30;15.20;99.90
8214;DHT22;4148;47.974;7.824;2024-02-23T11:50:59;15.50;99.90
8214;DHT22;4148;47.974;7.824;2024-02-23T11:53:26;16.00;99.90
8214;DHT22;4148;47.974;7.824;2024-02-23T11:55:54;15.90;99.90
8214;DHT22;4148;47.974;7.824;2024-02-23T11:58:23;15.70;99.90
8214;DHT22;4148;47.974;7.824;2024-02-23T12:00:52;15.70;99.90
8214;DHT22;4148;47.974;7.824;2024-02-23T12:03:20;15.10;99.90
8214;DHT22;4148;47.974;7.824;2024-02-23T12:05:49;15.10;99.90
8214;DHT22;4148;47.974;7.824;2024-02-23T12:08:18;15.30;99.90
8214;DHT22;4148;47.974;7.824;2024-02-23T12:10:46;15.70;99.90
8214;DHT22;4148;47.974;7.824;2024-02-23T12:13:14;15.30;99.90
8214;DHT22;4148;47.974;7.824;2024-02-23T12:15:42;15.50;99.90
8214;DHT22;4148;47.974;7.824;2024-02-23T12:18:11;15.00;99.90
8214;DHT22;4148;47.974;7.824;2024-02-23T12:20:39;14.80;99.90
8214;DHT22;4148;47.974;7.824;2024-02-23T12:23:07;14.50;99.90
8214;DHT22;4148;47.974;7.824;2024-02-23T12:25:37;14.60;99.90
8214;DHT22;4148;47.974;7.824;2024-02-23T12:28:08;14.70;99.90
8214;DHT22;4148;47.974;7.824;2024-02-23T12:30:36;14.40;99.90
8214;DHT22;4148;47.974;7.824;2024-02-23T12:33:04;14.50;99.90
8214;DHT22;4148;47.974;7.824;2024-02-23T12:35:35;14.20;99.90
8214;DHT22;4148;47.974;7.824;2024-02-23T12:38:04;14.10;99.90
8214;DHT22;4148;47.974;7.824;2024-02-23T12:40:32;13.80;99.90
8214;DHT22;4148;47.974;7.824;2024-02-23T12:43:00;13.90;99.90
8214;DHT22;4148;47.974;7.824;2024-02-23T12:45:27;13.40;99.90
8214;DHT22;4148;47.974;7.824;2024-02-23T12:47:55;13.10;99.90
8214;DHT22;4148;47.974;7.824;2024-02-23T12:50:23;13.00;99.90
8214;DHT22;4148;47.974;7.824;2024-02-23T12:52:53;12.90;99.90
8214;DHT22;4148;47.974;7.824;2024-02-23T12:55:21;12.80;99.90
8214;DHT22;4148;47.974;7.824;2024-02-23T12:57:48;12.80;99.90
8214;DHT22;4148;47.974;7.824;2024-02-23T13:00:17;12.60;99.90
8214;DHT22;4148;47.974;7.824;2024-02-23T13:02:45;12.50;99.90
8214;DHT22;4148;47.974;7.824;2024-02-23T13:05:13;12.50;99.90
8214;DHT22;4148;47.974;7.824;2024-02-23T13:07:42;12.60;99.90
8214;DHT22;4148;47.974;7.824;2024-02-23T13:10:11;12.50;99.90
8214;DHT22;4148;47.974;7.824;2024-02-23T13:12:39;12.70;99.90
8214;DHT22;4148;47.974;7.824;2024-02-23T13:15:08;12.80;99.90
8214;DHT22;4148;47.974;7.824;2024-02-23T13:17:36;12.70;99.90
8214;DHT22;4148;47.974;7.824;2024-02-23T13:20:04;12.50;99.90
8214;DHT22;4148;47.974;7.824;2024-02-23T13:22:37;12.40;99.90
8214;DHT22;4148;47.974;7.824;2024-02-23T13:25:06;12.30;99.90
8214;DHT22;4148;47.974;7.824;2024-02-23T13:27:35;12.20;99.90
8214;DHT22;4148;47.974;7.824;2024-02-23T13:30:04;12.10;99.90
8214;DHT22;4148;47.974;7.824;2024-02-23T13:32:33;12.10;99.90
8214;DHT22;4148;47.974;7.824;2024-02-23T13:35:01;12.00;99.90
8214;DHT22;4148;47.974;7.824;2024-02-23T13:37:31;11.90;99.90
8214;DHT22;4148;47.974;7.824;2024-02-23T13:39:59;11.90;99.90
8214;DHT22;4148;47.974;7.824;2024-02-23T13:42:27;11.80;99.90
8214;DHT22;4148;47.974;7.824;2024-02-23T13:44:57;11.90;99.90
8214;DHT22;4148;47.974;7.824;2024-02-23T13:47:26;11.80;99.90
8214;DHT22;4148;47.974;7.824;2024-02-23T13:49:54;11.70;99.90
8214;DHT22;4148;47.974;7.824;2024-02-23T13:52:22;11.50;99.90
8214;DHT22;4148;47.974;7.824;2024-02-23T13:54:50;11.40;99.90
8214;DHT22;4148;47.974;7.824;2024-02-23T13:57:18;11.30;99.90
8214;DHT22;4148;47.974;7.824;2024-02-23T13:59:46;11.20;99.90
8214;DHT22;4148;47.974;7.824;2024-02-23T14:02:16;11.10;99.90
8214;DHT22;4148;47.974;7.824;2024-02-23T14:04:45;11.00;99.90
8214;DHT22;4148;47.974;7.824;2024-02-23T14:07:14;10.90;99.90
8214;DHT22;4148;47.974;7.824;2024-02-23T14:09:42;10.80;99.90
8214;DHT22;4148;47.974;7.824;2024-02-23T14:12:10;10.80;99.90
8214;DHT22;4148;47.974;7.824;2024-02-23T14:14:38;10.70;99.90
8214;DHT22;4148;47.974;7.824;2024-02-23T14:17:06;10.70;99.90
8214;DHT22;4148;47.974;7.824;2024-02-23T14:19:35;10.60;99.90
8214;DHT22;4148;47.974;7.824;2024-02-23T14:22:05;10.60;99.90
8214;DHT22;4148;47.974;7.824;2024-02-23T14:24:33;10.70;99.90
8214;DHT22;4148;47.974;7.824;2024-02-23T14:27:01;10.70;99.90
8214;DHT22;4148;47.974;7.824;2024-02-23T14:29:29;10.80;99.90
8214;DHT22;4148;47.974;7.824;2024-02-23T14:31:59;10.80;99.90
8214;DHT22;4148;47.974;7.824;2024-02-23T14:34:27;10.90;99.90
8214;DHT22;4148;47.974;7.824;2024-02-23T14:36:58;10.70;99.90
8214;DHT22;4148;47.974;7.824;2024-02-23T14:39:26;10.70;99.90
8214;DHT22;4148;47.974;7.824;2024-02-23T14:41:54;10.70;99.90
8214;DHT22;4148;47.974;7.824;2024-02-23T14:44:22;10.60;99.90
8214;DHT22;4148;47.974;7.824;2024-02-23T14:46:50;10.60;99.90
8214;DHT22;4148;47.974;7.824;2024-02-23T14:49:18;10.60;99.90
8214;DHT22;4148;47.974;7.824;2024-02-23T14:51:46;10.60;99.90
8214;DHT22;4148;47.974;7.824;2024-02-23T14:54:16;10.80;99.90
8214;DHT22;4148;47.974;7.824;2024-02-23T14:56:44;10.70;99.90
8214;DHT22;4148;47.974;7.824;2024-02-23T14:59:13;10.70;99.90
8214;DHT22;4148;47.974;7.824;2024-02-23T15:01:42;10.80;99.90
8214;DHT22;4148;47.974;7.824;2024-02-23T15:04:10;10.90;99.90
8214;DHT22;4148;47.974;7.824;2024-02-23T15:06:40;11.00;99.90
8214;DHT22;4148;47.974;7.824;2024-02-23T15:09:08;11.20;99.90
8214;DHT22;4148;47.974;7.824;2024-02-23T15:11:37;11.20;99.90
8214;DHT22;4148;47.974;7.824;2024-02-23T15:14:05;11.30;99.90
8214;DHT22;4148;47.974;7.824;2024-02-23T15:16:33;11.20;99.90
8214;DHT22;4148;47.974;7.824;2024-02-23T15:19:02;11.20;99.90
8214;DHT22;4148;47.974;7.824;2024-02-23T15:21:34;11.00;99.90
8214;DHT22;4148;47.974;7.824;2024-02-23T15:24:06;11.00;99.90
8214;DHT22;4148;47.974;7.824;2024-02-23T15:26:34;11.00;99.90
8214;DHT22;4148;47.974;7.824;2024-02-23T15:29:04;11.00;99.90
8214;DHT22;4148;47.974;7.824;2024-02-23T15:31:31;11.00;99.90
8214;DHT22;4148;47.974;7.824;2024-02-23T15:33:59;10.80;99.90
8214;DHT22;4148;47.974;7.824;2024-02-23T15:36:29;10.70;99.90
8214;DHT22;4148;47.974;7.824;2024-02-23T15:38:57;10.80;99.90
8214;DHT22;4148;47.974;7.824;2024-02-23T15:41:31;10.70;99.90
8214;DHT22;4148;47.974;7.824;2024-02-23T15:44:01;10.70;99.90
8214;DHT22;4148;47.974;7.824;2024-02-23T15:46:30;10.60;99.90
8214;DHT22;4148;47.974;7.824;2024-02-23T15:48:58;10.60;99.90
8214;DHT22;4148;47.974;7.824;2024-02-23T15:51:30;10.50;99.90
8214;DHT22;4148;47.974;7.824;2024-02-23T15:54:18;10.40;99.90
8214;DHT22;4148;47.974;7.824;2024-02-23T15:56:46;10.50;99.90
8214;DHT22;4148;47.974;7.824;2024-02-23T15:59:13;10.50;99.90
8214;DHT22;4148;47.974;7.824;2024-02-23T16:01:43;10.50;99.90
8214;DHT22;4148;47.974;7.824;2024-02-23T16:04:11;10.60;99.90
8214;DHT22;4148;47.974;7.824;2024-02-23T16:06:39;10.70;99.90
8214;DHT22;4148;47.974;7.824;2024-02-23T16:09:07;10.70;99.90
8214;DHT22;4148;47.974;7.824;2024-02-23T16:11:35;10.70;99.90
8214;DHT22;4148;47.974;7.824;2024-02-23T16:14:04;10.70;99.90
8214;DHT22;4148;47.974;7.824;2024-02-23T16:16:32;10.70;99.90
8214;DHT22;4148;47.974;7.824;2024-02-23T16:19:01;10.60;99.90
8214;DHT22;4148;47.974;7.824;2024-02-23T16:21:29;10.50;99.90
8214;DHT22;4148;47.974;7.824;2024-02-23T16:23:58;10.40;99.90
8214;DHT22;4148;47.974;7.824;2024-02-23T16:26:27;10.30;99.90
8214;DHT22;4148;47.974;7.824;2024-02-23T16:28:55;10.30;99.90
8214;DHT22;4148;47.974;7.824;2024-02-23T16:31:24;10.20;99.90
8214;DHT22;4148;47.974;7.824;2024-02-23T16:33:53;10.10;99.90
8214;DHT22;4148;47.974;7.824;2024-02-23T16:36:22;10.00;99.90